Esperanza — PD6464 — position and weather

sailwx.info

Track history (hours):
 
Tides and Currents Weather Stations Pressure Air Temp Water Temp Dewpoint Dewpoint Depression Visibility Wind Speed Wind Dir Waves Ship Positions

Esperanza

Last reported at 2017-Jun-14 12:10 UTC. Time now 2017-Jun-29 12:44 UTC.
Position N 35°59' W 005°25'.
Warning: this ship's position is 15 days out of date.

Length 72 m; draft 5 m.

Type: Other ship. MMSI: 244690000.

Date/timePositionNaut miles runAvg speedWind from/ knotsBaromVisibWave heightAir tempDewpointWater temp
2017-Jun-14 12:10N 35°59' W 005°25'  
2017-Jun-09 16:05N 28°23' W 015°04'1 7.5
2017-Jun-09 15:59N 28°23' W 015°04'4 7.5
2017-Jun-09 15:30N 28°20' W 015°07'4 7.6
2017-Jun-09 15:00N 28°17' W 015°10'4 7.8
2017-Jun-09 14:30N 28°14' W 015°12'7 6.7
2017-Jun-09 13:30N 28°09' W 015°17'3 6.8
2017-Jun-09 13:00N 28°06' W 015°20'4 8.5
2017-Jun-09 12:30N 28°07' W 015°25'1 2.4
2017-Jun-09 11:53N 28°08' W 015°25'0 0.0
2017-Jun-09 11:23N 28°08' W 015°25'0 0.0
2017-Jun-09 10:53N 28°08' W 015°25'0 0.0
2017-Jun-09 10:23N 28°08' W 015°25'0 0.0
2017-Jun-09 09:56N 28°08' W 015°25'0 0.0
2017-Jun-09 09:26N 28°08' W 015°25'0 0.0
2017-Jun-09 08:53N 28°08' W 015°25'0 0.0
2017-Jun-09 08:23N 28°08' W 015°25'0 0.0
2017-Jun-09 07:56N 28°08' W 015°25'0 0.0
2017-Jun-09 07:11N 28°08' W 015°25'0 0.0
2017-Jun-09 06:56N 28°08' W 015°25'0 0.0
2017-Jun-09 06:29N 28°08' W 015°25'0 0.0
2017-Jun-09 05:59N 28°08' W 015°25'0 0.0
2017-Jun-09 05:29N 28°08' W 015°25'0 0.0
2017-Jun-09 04:59N 28°08' W 015°25'0 0.0
2017-Jun-09 04:26N 28°08' W 015°25'0 0.0
2017-Jun-09 03:59N 28°08' W 015°25'0 0.0
2017-Jun-09 03:29N 28°08' W 015°25'0 0.0
2017-Jun-09 02:59N 28°08' W 015°25'0 0.0
2017-Jun-09 02:29N 28°08' W 015°25'0 0.0
2017-Jun-09 01:59N 28°08' W 015°25'0 0.0
2017-Jun-09 01:29N 28°08' W 015°25'0 0.0
2017-Jun-09 00:59N 28°08' W 015°25'0 0.0
2017-Jun-09 00:29N 28°08' W 015°25'0 0.0
2017-Jun-08 23:59N 28°08' W 015°25'0 0.0
2017-Jun-08 23:17N 28°08' W 015°25'0 0.0
2017-Jun-08 22:50N 28°08' W 015°25'0 0.0
2017-Jun-08 22:20N 28°08' W 015°25'0 0.0
2017-Jun-08 21:53N 28°08' W 015°25'0 0.0
2017-Jun-08 21:23N 28°08' W 015°25'0 0.0
2017-Jun-08 20:53N 28°08' W 015°25'0 0.0
2017-Jun-08 20:20N 28°08' W 015°25'0 0.0
2017-Jun-08 19:53N 28°08' W 015°25'0 0.0
2017-Jun-08 19:23N 28°08' W 015°25'0 0.0
2017-Jun-08 18:53N 28°08' W 015°25'0 0.0
2017-Jun-08 18:23N 28°08' W 015°25'0 0.0
2017-Jun-08 17:56N 28°08' W 015°25'0 0.0
2017-Jun-08 17:26N 28°08' W 015°25'0 0.0
2017-Jun-08 16:56N 28°08' W 015°25'0 0.0
2017-Jun-08 16:11N 28°08' W 015°25'0 0.0
2017-Jun-08 15:56N 28°08' W 015°25'0 0.0
2017-Jun-08 15:26N 28°08' W 015°25'0 0.0
2017-Jun-08 14:59N 28°08' W 015°25'0 0.0
2017-Jun-08 14:29N 28°08' W 015°25'1 0.8
2017-Jun-08 13:30N 28°08' W 015°25'2 4.6
2017-Jun-08 13:00N 28°07' W 015°23'4 8.7
2017-Jun-08 12:30N 28°05' W 015°18'5 9.1
2017-Jun-08 12:00N 28°04' W 015°13'2 2.9
2017-Jun-08 11:13N 28°02' W 015°11'1 3.4
2017-Jun-08 11:00N 28°02' W 015°12'1 2.4
2017-Jun-08 10:30N 28°02' W 015°14'1 1.9
2017-Jun-08 10:00N 28°02' W 015°15'1 3.0
2017-Jun-08 09:30N 28°04' W 015°15'2 3.3
2017-Jun-08 09:00N 28°05' W 015°16'1 1.1
2017-Jun-08 08:30N 28°05' W 015°17'1 1.8
2017-Jun-08 08:00N 28°04' W 015°17'1 1.8
2017-Jun-08 07:30N 28°04' W 015°16'2 3.7
2017-Jun-08 07:00N 28°02' W 015°15'2 5.0
2017-Jun-08 06:30N 27°60' W 015°15'2 4.8
2017-Jun-08 06:00N 27°57' W 015°15'2 4.6
2017-Jun-08 05:30N 27°55' W 015°15'2 4.4
2017-Jun-08 05:00N 27°53' W 015°16'2 4.3
2017-Jun-08 04:29N 27°51' W 015°16'2 4.2
2017-Jun-08 04:00N 27°49' W 015°16'2 4.3
2017-Jun-08 03:28N 27°46' W 015°17'20 3.5
2017-Jun-07 21:53N 27°38' W 015°37'2 0.1
2017-Jun-07 11:33N 27°37' W 015°36'0 2.5
2017-Jun-07 11:30N 27°37' W 015°37'1 2.8
2017-Jun-07 10:59N 27°37' W 015°38'2 3.2
2017-Jun-07 10:27N 27°38' W 015°40'4 5.5
2017-Jun-07 09:43N 27°38' W 015°36'0 0.1
2017-Jun-07 09:24N 27°38' W 015°36'1 0.8
2017-Jun-07 07:45N 27°38' W 015°37'44 1.2
2017-Jun-05 17:43N 28°09' W 016°13'4 7.7
2017-Jun-05 17:13N 28°12' W 016°10'2 7.5
2017-Jun-05 16:59N 28°13' W 016°08'4 7.4
2017-Jun-05 16:29N 28°16' W 016°06'8 7.6
2017-Jun-05 15:25N 28°23' W 016°01'3 7.2
2017-Jun-05 15:00N 28°25' W 015°58'4 7.1
2017-Jun-05 14:30N 28°27' W 015°55'28 7.1
2017-Jun-05 10:29N 28°47' W 015°32'3 7.0
2017-Jun-05 10:00N 28°49' W 015°29'17 2.0
2017-Jun-05 01:28N 28°38' W 015°15'2 4.3
2017-Jun-05 01:00N 28°36' W 015°15'2 4.2
2017-Jun-05 00:29N 28°34' W 015°16'3 4.2
2017-Jun-04 23:51N 28°31' W 015°17'1 4.0
2017-Jun-04 23:30N 28°30' W 015°17'2 4.1
2017-Jun-04 23:00N 28°28' W 015°18'2 4.2
2017-Jun-04 22:29N 28°26' W 015°18'2 4.3
2017-Jun-04 22:00N 28°24' W 015°19'2 4.3
2017-Jun-04 21:30N 28°22' W 015°20'2 4.3
2017-Jun-04 21:00N 28°20' W 015°20'2 4.6
2017-Jun-04 20:30N 28°17' W 015°21'3 5.0
2017-Jun-04 20:00N 28°15' W 015°21'2 4.8
2017-Jun-04 19:30N 28°12' W 015°22'2 3.9
2017-Jun-04 19:00N 28°10' W 015°22'2 4.4
2017-Jun-04 18:30N 28°09' W 015°23'1 1.3
2017-Jun-04 17:56N 28°10' W 015°24'0 0.0
2017-Jun-04 17:26N 28°10' W 015°24'0 0.0
2017-Jun-04 16:56N 28°10' W 015°24'0 0.0
2017-Jun-04 16:26N 28°10' W 015°24'0 0.0
2017-Jun-04 15:44N 28°10' W 015°24'0 0.0
2017-Jun-04 15:29N 28°10' W 015°24'0 0.0
2017-Jun-04 14:59N 28°10' W 015°24'0 0.0
2017-Jun-04 13:59N 28°10' W 015°24'0 0.0
2017-Jun-04 13:26N 28°10' W 015°24'0 0.0
2017-Jun-04 12:56N 28°10' W 015°24'0 0.0
2017-Jun-04 12:26N 28°10' W 015°24'  
Track history (hours):
 
Tides and Currents Weather Stations Pressure Air Temp Water Temp Dewpoint Dewpoint Depression Visibility Wind Speed Wind Dir Waves Ship Positions

Esperanza

Last reported at 2017-Jun-14 12:10 UTC. Time now 2017-Jun-29 12:44 UTC.
Position N 35°59' W 005°25'.
Warning: this ship's position is 15 days out of date.

Length 72 m; draft 5 m.

Type: Other ship. MMSI: 244690000.

Date/timePositionNaut miles runAvg speedWind from/ knotsBaromVisibWave heightAir tempDewpointWater temp
2017-Jun-14 12:10N 35°59' W 005°25'  
2017-Jun-09 16:05N 28°23' W 015°04'1 7.5
2017-Jun-09 15:59N 28°23' W 015°04'4 7.5
2017-Jun-09 15:30N 28°20' W 015°07'4 7.6
2017-Jun-09 15:00N 28°17' W 015°10'4 7.8
2017-Jun-09 14:30N 28°14' W 015°12'7 6.7
2017-Jun-09 13:30N 28°09' W 015°17'3 6.8
2017-Jun-09 13:00N 28°06' W 015°20'4 8.5
2017-Jun-09 12:30N 28°07' W 015°25'1 2.4
2017-Jun-09 11:53N 28°08' W 015°25'0 0.0
2017-Jun-09 11:23N 28°08' W 015°25'0 0.0
2017-Jun-09 10:53N 28°08' W 015°25'0 0.0
2017-Jun-09 10:23N 28°08' W 015°25'0 0.0
2017-Jun-09 09:56N 28°08' W 015°25'0 0.0
2017-Jun-09 09:26N 28°08' W 015°25'0 0.0
2017-Jun-09 08:53N 28°08' W 015°25'0 0.0
2017-Jun-09 08:23N 28°08' W 015°25'0 0.0
2017-Jun-09 07:56N 28°08' W 015°25'0 0.0
2017-Jun-09 07:11N 28°08' W 015°25'0 0.0
2017-Jun-09 06:56N 28°08' W 015°25'0 0.0
2017-Jun-09 06:29N 28°08' W 015°25'0 0.0
2017-Jun-09 05:59N 28°08' W 015°25'0 0.0
2017-Jun-09 05:29N 28°08' W 015°25'0 0.0
2017-Jun-09 04:59N 28°08' W 015°25'0 0.0
2017-Jun-09 04:26N 28°08' W 015°25'0 0.0
2017-Jun-09 03:59N 28°08' W 015°25'0 0.0
2017-Jun-09 03:29N 28°08' W 015°25'0 0.0
2017-Jun-09 02:59N 28°08' W 015°25'0 0.0
2017-Jun-09 02:29N 28°08' W 015°25'0 0.0
2017-Jun-09 01:59N 28°08' W 015°25'0 0.0
2017-Jun-09 01:29N 28°08' W 015°25'0 0.0
2017-Jun-09 00:59N 28°08' W 015°25'0 0.0
2017-Jun-09 00:29N 28°08' W 015°25'0 0.0
2017-Jun-08 23:59N 28°08' W 015°25'0 0.0
2017-Jun-08 23:17N 28°08' W 015°25'0 0.0
2017-Jun-08 22:50N 28°08' W 015°25'0 0.0
2017-Jun-08 22:20N 28°08' W 015°25'0 0.0
2017-Jun-08 21:53N 28°08' W 015°25'0 0.0
2017-Jun-08 21:23N 28°08' W 015°25'0 0.0
2017-Jun-08 20:53N 28°08' W 015°25'0 0.0
2017-Jun-08 20:20N 28°08' W 015°25'0 0.0
2017-Jun-08 19:53N 28°08' W 015°25'0 0.0
2017-Jun-08 19:23N 28°08' W 015°25'0 0.0
2017-Jun-08 18:53N 28°08' W 015°25'0 0.0
2017-Jun-08 18:23N 28°08' W 015°25'0 0.0
2017-Jun-08 17:56N 28°08' W 015°25'0 0.0
2017-Jun-08 17:26N 28°08' W 015°25'0 0.0
2017-Jun-08 16:56N 28°08' W 015°25'0 0.0
2017-Jun-08 16:11N 28°08' W 015°25'0 0.0
2017-Jun-08 15:56N 28°08' W 015°25'0 0.0
2017-Jun-08 15:26N 28°08' W 015°25'0 0.0
2017-Jun-08 14:59N 28°08' W 015°25'0 0.0
2017-Jun-08 14:29N 28°08' W 015°25'1 0.8
2017-Jun-08 13:30N 28°08' W 015°25'2 4.6
2017-Jun-08 13:00N 28°07' W 015°23'4 8.7
2017-Jun-08 12:30N 28°05' W 015°18'5 9.1
2017-Jun-08 12:00N 28°04' W 015°13'2 2.9
2017-Jun-08 11:13N 28°02' W 015°11'1 3.4
2017-Jun-08 11:00N 28°02' W 015°12'1 2.4
2017-Jun-08 10:30N 28°02' W 015°14'1 1.9
2017-Jun-08 10:00N 28°02' W 015°15'1 3.0
2017-Jun-08 09:30N 28°04' W 015°15'2 3.3
2017-Jun-08 09:00N 28°05' W 015°16'1 1.1
2017-Jun-08 08:30N 28°05' W 015°17'1 1.8
2017-Jun-08 08:00N 28°04' W 015°17'1 1.8
2017-Jun-08 07:30N 28°04' W 015°16'2 3.7
2017-Jun-08 07:00N 28°02' W 015°15'2 5.0
2017-Jun-08 06:30N 27°60' W 015°15'2 4.8
2017-Jun-08 06:00N 27°57' W 015°15'2 4.6
2017-Jun-08 05:30N 27°55' W 015°15'2 4.4
2017-Jun-08 05:00N 27°53' W 015°16'2 4.3
2017-Jun-08 04:29N 27°51' W 015°16'2 4.2
2017-Jun-08 04:00N 27°49' W 015°16'2 4.3
2017-Jun-08 03:28N 27°46' W 015°17'20 3.5
2017-Jun-07 21:53N 27°38' W 015°37'2 0.1
2017-Jun-07 11:33N 27°37' W 015°36'0 2.5
2017-Jun-07 11:30N 27°37' W 015°37'1 2.8
2017-Jun-07 10:59N 27°37' W 015°38'2 3.2
2017-Jun-07 10:27N 27°38' W 015°40'4 5.5
2017-Jun-07 09:43N 27°38' W 015°36'0 0.1
2017-Jun-07 09:24N 27°38' W 015°36'1 0.8
2017-Jun-07 07:45N 27°38' W 015°37'44 1.2
2017-Jun-05 17:43N 28°09' W 016°13'4 7.7
2017-Jun-05 17:13N 28°12' W 016°10'2 7.5
2017-Jun-05 16:59N 28°13' W 016°08'4 7.4
2017-Jun-05 16:29N 28°16' W 016°06'8 7.6
2017-Jun-05 15:25N 28°23' W 016°01'3 7.2
2017-Jun-05 15:00N 28°25' W 015°58'4 7.1
2017-Jun-05 14:30N 28°27' W 015°55'28 7.1
2017-Jun-05 10:29N 28°47' W 015°32'3 7.0
2017-Jun-05 10:00N 28°49' W 015°29'17 2.0
2017-Jun-05 01:28N 28°38' W 015°15'2 4.3
2017-Jun-05 01:00N 28°36' W 015°15'2 4.2
2017-Jun-05 00:29N 28°34' W 015°16'3 4.2
2017-Jun-04 23:51N 28°31' W 015°17'1 4.0
2017-Jun-04 23:30N 28°30' W 015°17'2 4.1
2017-Jun-04 23:00N 28°28' W 015°18'2 4.2
2017-Jun-04 22:29N 28°26' W 015°18'2 4.3
2017-Jun-04 22:00N 28°24' W 015°19'2 4.3
2017-Jun-04 21:30N 28°22' W 015°20'2 4.3
2017-Jun-04 21:00N 28°20' W 015°20'2 4.6
2017-Jun-04 20:30N 28°17' W 015°21'3 5.0
2017-Jun-04 20:00N 28°15' W 015°21'2 4.8
2017-Jun-04 19:30N 28°12' W 015°22'2 3.9
2017-Jun-04 19:00N 28°10' W 015°22'2 4.4
2017-Jun-04 18:30N 28°09' W 015°23'1 1.3
2017-Jun-04 17:56N 28°10' W 015°24'0 0.0
2017-Jun-04 17:26N 28°10' W 015°24'0 0.0
2017-Jun-04 16:56N 28°10' W 015°24'0 0.0
2017-Jun-04 16:26N 28°10' W 015°24'0 0.0
2017-Jun-04 15:44N 28°10' W 015°24'0 0.0
2017-Jun-04 15:29N 28°10' W 015°24'0 0.0
2017-Jun-04 14:59N 28°10' W 015°24'0 0.0
2017-Jun-04 13:59N 28°10' W 015°24'0 0.0
2017-Jun-04 13:26N 28°10' W 015°24'0 0.0
2017-Jun-04 12:56N 28°10' W 015°24'0 0.0
2017-Jun-04 12:26N 28°10' W 015°24'  

Dump ship's entire track history